sensor_id;sensor_type;location;lat;lon;timestamp;P1;durP1;ratioP1;P2;durP2;ratioP2
33740;SDS011;20065;48.380;10.892;2023-02-15T00:02:42;32.97;;;16.20;;
33740;SDS011;20065;48.380;10.892;2023-02-15T00:05:30;26.92;;;14.73;;
33740;SDS011;20065;48.380;10.892;2023-02-15T00:08:16;55.40;;;17.52;;
33740;SDS011;20065;48.380;10.892;2023-02-15T00:11:03;36.92;;;15.98;;
33740;SDS011;20065;48.380;10.892;2023-02-15T00:13:50;26.38;;;15.52;;
33740;SDS011;20065;48.380;10.892;2023-02-15T00:16:37;31.50;;;14.30;;
33740;SDS011;20065;48.380;10.892;2023-02-15T00:19:25;51.80;;;16.27;;
33740;SDS011;20065;48.380;10.892;2023-02-15T00:22:11;126.57;;;18.58;;
33740;SDS011;20065;48.380;10.892;2023-02-15T00:24:57;32.42;;;15.85;;
33740;SDS011;20065;48.380;10.892;2023-02-15T00:27:44;43.53;;;15.45;;
33740;SDS011;20065;48.380;10.892;2023-02-15T00:30:30;67.25;;;15.73;;
33740;SDS011;20065;48.380;10.892;2023-02-15T00:33:16;95.50;;;18.95;;
33740;SDS011;20065;48.380;10.892;2023-02-15T00:36:03;89.68;;;17.13;;
33740;SDS011;20065;48.380;10.892;2023-02-15T00:38:54;35.20;;;15.55;;
33740;SDS011;20065;48.380;10.892;2023-02-15T00:41:40;66.60;;;16.00;;
33740;SDS011;20065;48.380;10.892;2023-02-15T00:44:27;60.78;;;16.55;;
33740;SDS011;20065;48.380;10.892;2023-02-15T00:47:16;64.32;;;16.95;;
33740;SDS011;20065;48.380;10.892;2023-02-15T00:50:02;111.60;;;18.33;;
33740;SDS011;20065;48.380;10.892;2023-02-15T00:52:49;48.83;;;15.80;;
33740;SDS011;20065;48.380;10.892;2023-02-15T00:55:35;60.33;;;16.48;;
33740;SDS011;20065;48.380;10.892;2023-02-15T00:58:22;32.55;;;16.52;;
33740;SDS011;20065;48.380;10.892;2023-02-15T01:01:12;187.82;;;21.90;;
33740;SDS011;20065;48.380;10.892;2023-02-15T01:04:01;171.80;;;21.80;;
33740;SDS011;20065;48.380;10.892;2023-02-15T01:06:50;33.00;;;15.95;;
33740;SDS011;20065;48.380;10.892;2023-02-15T01:09:36;30.55;;;17.05;;
33740;SDS011;20065;48.380;10.892;2023-02-15T01:12:22;56.53;;;16.85;;
33740;SDS011;20065;48.380;10.892;2023-02-15T01:15:08;39.70;;;18.20;;
33740;SDS011;20065;48.380;10.892;2023-02-15T01:17:56;78.03;;;18.63;;
33740;SDS011;20065;48.380;10.892;2023-02-15T01:20:42;49.30;;;16.33;;
33740;SDS011;20065;48.380;10.892;2023-02-15T01:23:28;77.93;;;17.95;;
33740;SDS011;20065;48.380;10.892;2023-02-15T01:26:15;70.22;;;18.33;;
33740;SDS011;20065;48.380;10.892;2023-02-15T01:29:03;65.35;;;17.50;;
33740;SDS011;20065;48.380;10.892;2023-02-15T01:31:50;65.60;;;17.63;;
33740;SDS011;20065;48.380;10.892;2023-02-15T01:34:36;31.02;;;16.13;;
33740;SDS011;20065;48.380;10.892;2023-02-15T01:37:23;41.20;;;16.00;;
33740;SDS011;20065;48.380;10.892;2023-02-15T01:40:11;56.85;;;16.42;;
33740;SDS011;20065;48.380;10.892;2023-02-15T01:43:00;32.10;;;16.40;;
33740;SDS011;20065;48.380;10.892;2023-02-15T01:45:46;41.95;;;15.30;;
33740;SDS011;20065;48.380;10.892;2023-02-15T01:48:34;66.65;;;16.58;;
33740;SDS011;20065;48.380;10.892;2023-02-15T01:51:27;52.35;;;17.15;;
33740;SDS011;20065;48.380;10.892;2023-02-15T01:54:23;30.23;;;15.98;;
33740;SDS011;20065;48.380;10.892;2023-02-15T01:57:16;34.03;;;15.82;;
33740;SDS011;20065;48.380;10.892;2023-02-15T02:00:05;30.33;;;15.55;;
33740;SDS011;20065;48.380;10.892;2023-02-15T02:02:58;31.55;;;15.00;;
33740;SDS011;20065;48.380;10.892;2023-02-15T02:05:44;30.30;;;14.50;;
33740;SDS011;20065;48.380;10.892;2023-02-15T02:08:31;30.65;;;17.20;;
33740;SDS011;20065;48.380;10.892;2023-02-15T02:11:18;45.70;;;15.43;;
33740;SDS011;20065;48.380;10.892;2023-02-15T02:14:06;132.38;;;19.02;;
33740;SDS011;20065;48.380;10.892;2023-02-15T02:16:57;31.60;;;15.00;;
33740;SDS011;20065;48.380;10.892;2023-02-15T02:23:20;34.13;;;16.25;;
33740;SDS011;20065;48.380;10.892;2023-02-15T02:39:30;32.97;;;15.10;;
33740;SDS011;20065;48.380;10.892;2023-02-15T02:48:29;29.65;;;15.48;;
33740;SDS011;20065;48.380;10.892;2023-02-15T02:51:17;38.65;;;16.10;;
33740;SDS011;20065;48.380;10.892;2023-02-15T02:54:06;32.67;;;14.82;;
33740;SDS011;20065;48.380;10.892;2023-02-15T02:56:53;37.45;;;15.75;;
33740;SDS011;20065;48.380;10.892;2023-02-15T02:59:42;60.22;;;17.95;;
33740;SDS011;20065;48.380;10.892;2023-02-15T03:02:33;26.10;;;14.90;;
33740;SDS011;20065;48.380;10.892;2023-02-15T03:05:24;31.13;;;14.05;;
33740;SDS011;20065;48.380;10.892;2023-02-15T03:08:16;32.88;;;14.52;;
33740;SDS011;20065;48.380;10.892;2023-02-15T03:11:07;31.52;;;14.63;;
33740;SDS011;20065;48.380;10.892;2023-02-15T03:13:54;24.90;;;14.65;;
33740;SDS011;20065;48.380;10.892;2023-02-15T03:16:40;39.97;;;15.05;;
33740;SDS011;20065;48.380;10.892;2023-02-15T03:19:33;33.75;;;14.13;;
33740;SDS011;20065;48.380;10.892;2023-02-15T03:22:25;32.92;;;14.00;;
33740;SDS011;20065;48.380;10.892;2023-02-15T03:25:22;51.75;;;16.02;;
33740;SDS011;20065;48.380;10.892;2023-02-15T03:28:13;29.65;;;14.60;;
33740;SDS011;20065;48.380;10.892;2023-02-15T03:31:04;43.33;;;14.23;;
33740;SDS011;20065;48.380;10.892;2023-02-15T03:33:57;23.58;;;13.80;;
33740;SDS011;20065;48.380;10.892;2023-02-15T03:52:49;44.22;;;12.93;;
33740;SDS011;20065;48.380;10.892;2023-02-15T03:55:35;33.10;;;12.48;;
33740;SDS011;20065;48.380;10.892;2023-02-15T03:58:22;34.35;;;12.30;;
33740;SDS011;20065;48.380;10.892;2023-02-15T04:01:27;25.85;;;12.48;;
33740;SDS011;20065;48.380;10.892;2023-02-15T04:04:44;26.85;;;13.30;;
33740;SDS011;20065;48.380;10.892;2023-02-15T04:07:32;26.33;;;14.02;;
33740;SDS011;20065;48.380;10.892;2023-02-15T04:10:18;28.00;;;14.27;;
33740;SDS011;20065;48.380;10.892;2023-02-15T04:13:23;26.38;;;14.07;;
33740;SDS011;20065;48.380;10.892;2023-02-15T04:16:19;24.98;;;13.50;;
33740;SDS011;20065;48.380;10.892;2023-02-15T04:19:05;22.08;;;13.32;;
33740;SDS011;20065;48.380;10.892;2023-02-15T04:22:09;26.35;;;14.10;;
33740;SDS011;20065;48.380;10.892;2023-02-15T04:25:14;25.73;;;13.57;;
33740;SDS011;20065;48.380;10.892;2023-02-15T04:28:00;20.45;;;12.77;;
33740;SDS011;20065;48.380;10.892;2023-02-15T04:30:46;20.90;;;13.23;;
33740;SDS011;20065;48.380;10.892;2023-02-15T04:33:33;23.20;;;12.48;;
33740;SDS011;20065;48.380;10.892;2023-02-15T04:36:21;23.95;;;14.02;;
33740;SDS011;20065;48.380;10.892;2023-02-15T04:39:07;19.58;;;12.32;;
33740;SDS011;20065;48.380;10.892;2023-02-15T04:41:54;20.42;;;12.73;;
33740;SDS011;20065;48.380;10.892;2023-02-15T04:44:40;22.10;;;12.15;;
33740;SDS011;20065;48.380;10.892;2023-02-15T04:47:26;28.00;;;12.90;;
33740;SDS011;20065;48.380;10.892;2023-02-15T04:50:12;20.75;;;12.50;;
33740;SDS011;20065;48.380;10.892;2023-02-15T04:52:59;25.30;;;12.32;;
33740;SDS011;20065;48.380;10.892;2023-02-15T04:55:48;17.17;;;11.85;;
33740;SDS011;20065;48.380;10.892;2023-02-15T04:58:34;22.23;;;12.77;;
33740;SDS011;20065;48.380;10.892;2023-02-15T05:01:22;28.38;;;11.65;;
33740;SDS011;20065;48.380;10.892;2023-02-15T05:04:08;22.67;;;11.98;;
33740;SDS011;20065;48.380;10.892;2023-02-15T05:06:54;40.45;;;13.07;;
33740;SDS011;20065;48.380;10.892;2023-02-15T05:09:40;22.88;;;12.52;;
33740;SDS011;20065;48.380;10.892;2023-02-15T05:12:27;29.80;;;12.88;;
33740;SDS011;20065;48.380;10.892;2023-02-15T05:15:13;29.10;;;13.20;;
33740;SDS011;20065;48.380;10.892;2023-02-15T05:17:59;21.75;;;13.48;;
33740;SDS011;20065;48.380;10.892;2023-02-15T05:20:47;25.45;;;13.63;;
33740;SDS011;20065;48.380;10.892;2023-02-15T05:23:33;18.95;;;11.63;;
33740;SDS011;20065;48.380;10.892;2023-02-15T05:26:20;22.52;;;11.98;;
33740;SDS011;20065;48.380;10.892;2023-02-15T05:29:37;31.70;;;14.18;;
33740;SDS011;20065;48.380;10.892;2023-02-15T05:32:23;29.52;;;13.88;;
33740;SDS011;20065;48.380;10.892;2023-02-15T05:35:16;22.00;;;13.20;;
33740;SDS011;20065;48.380;10.892;2023-02-15T05:38:02;23.30;;;14.05;;
33740;SDS011;20065;48.380;10.892;2023-02-15T05:40:48;26.38;;;15.25;;
33740;SDS011;20065;48.380;10.892;2023-02-15T05:43:36;26.00;;;13.73;;
33740;SDS011;20065;48.380;10.892;2023-02-15T05:46:23;25.67;;;13.90;;
33740;SDS011;20065;48.380;10.892;2023-02-15T05:49:09;27.95;;;13.07;;
33740;SDS011;20065;48.380;10.892;2023-02-15T05:51:55;29.42;;;14.65;;
33740;SDS011;20065;48.380;10.892;2023-02-15T05:54:41;54.67;;;16.33;;
33740;SDS011;20065;48.380;10.892;2023-02-15T05:57:27;36.30;;;14.82;;
33740;SDS011;20065;48.380;10.892;2023-02-15T06:00:14;42.47;;;15.27;;
33740;SDS011;20065;48.380;10.892;2023-02-15T06:03:00;26.40;;;14.85;;
33740;SDS011;20065;48.380;10.892;2023-02-15T06:05:47;24.95;;;13.20;;
33740;SDS011;20065;48.380;10.892;2023-02-15T06:08:33;22.67;;;12.82;;
33740;SDS011;20065;48.380;10.892;2023-02-15T06:11:20;21.45;;;13.57;;
33740;SDS011;20065;48.380;10.892;2023-02-15T06:14:06;22.48;;;12.00;;
33740;SDS011;20065;48.380;10.892;2023-02-15T06:16:52;23.45;;;13.35;;
33740;SDS011;20065;48.380;10.892;2023-02-15T06:19:38;20.15;;;12.45;;
33740;SDS011;20065;48.380;10.892;2023-02-15T06:22:25;26.52;;;13.10;;
33740;SDS011;20065;48.380;10.892;2023-02-15T06:25:11;22.45;;;12.52;;
33740;SDS011;20065;48.380;10.892;2023-02-15T06:27:57;22.38;;;12.35;;
33740;SDS011;20065;48.380;10.892;2023-02-15T06:30:43;22.40;;;13.20;;
33740;SDS011;20065;48.380;10.892;2023-02-15T06:33:29;22.95;;;14.05;;
33740;SDS011;20065;48.380;10.892;2023-02-15T06:36:16;25.38;;;13.77;;
33740;SDS011;20065;48.380;10.892;2023-02-15T06:39:02;22.63;;;13.75;;
33740;SDS011;20065;48.380;10.892;2023-02-15T06:44:54;25.42;;;16.08;;
33740;SDS011;20065;48.380;10.892;2023-02-15T06:47:44;21.60;;;13.05;;
33740;SDS011;20065;48.380;10.892;2023-02-15T06:50:30;26.30;;;14.80;;
33740;SDS011;20065;48.380;10.892;2023-02-15T06:53:16;20.98;;;12.60;;
33740;SDS011;20065;48.380;10.892;2023-02-15T06:56:03;19.30;;;13.02;;
33740;SDS011;20065;48.380;10.892;2023-02-15T06:58:51;23.23;;;14.30;;
33740;SDS011;20065;48.380;10.892;2023-02-15T07:01:38;23.80;;;14.05;;
33740;SDS011;20065;48.380;10.892;2023-02-15T07:04:29;25.98;;;14.32;;
33740;SDS011;20065;48.380;10.892;2023-02-15T07:07:15;26.20;;;12.57;;
33740;SDS011;20065;48.380;10.892;2023-02-15T07:10:02;23.40;;;13.40;;
33740;SDS011;20065;48.380;10.892;2023-02-15T07:12:49;23.40;;;13.48;;
33740;SDS011;20065;48.380;10.892;2023-02-15T07:15:35;24.77;;;14.32;;
33740;SDS011;20065;48.380;10.892;2023-02-15T07:18:21;53.28;;;29.23;;
33740;SDS011;20065;48.380;10.892;2023-02-15T07:21:07;23.10;;;13.65;;
33740;SDS011;20065;48.380;10.892;2023-02-15T07:23:56;31.80;;;18.65;;
33740;SDS011;20065;48.380;10.892;2023-02-15T07:26:45;22.77;;;11.60;;
33740;SDS011;20065;48.380;10.892;2023-02-15T07:29:32;20.08;;;12.93;;
33740;SDS011;20065;48.380;10.892;2023-02-15T07:32:18;22.15;;;14.65;;
33740;SDS011;20065;48.380;10.892;2023-02-15T07:35:04;22.95;;;12.75;;
33740;SDS011;20065;48.380;10.892;2023-02-15T07:37:50;18.45;;;12.18;;
33740;SDS011;20065;48.380;10.892;2023-02-15T07:40:38;22.58;;;10.85;;
33740;SDS011;20065;48.380;10.892;2023-02-15T07:43:24;20.75;;;12.57;;
33740;SDS011;20065;48.380;10.892;2023-02-15T07:46:15;21.60;;;12.77;;
33740;SDS011;20065;48.380;10.892;2023-02-15T07:49:02;20.88;;;12.27;;
33740;SDS011;20065;48.380;10.892;2023-02-15T07:51:49;44.90;;;15.02;;
33740;SDS011;20065;48.380;10.892;2023-02-15T07:54:35;23.73;;;15.00;;
33740;SDS011;20065;48.380;10.892;2023-02-15T07:57:21;24.38;;;14.90;;
33740;SDS011;20065;48.380;10.892;2023-02-15T08:00:08;24.67;;;14.50;;
33740;SDS011;20065;48.380;10.892;2023-02-15T08:02:58;22.13;;;14.05;;
33740;SDS011;20065;48.380;10.892;2023-02-15T08:05:59;23.33;;;14.07;;
33740;SDS011;20065;48.380;10.892;2023-02-15T08:08:46;20.27;;;12.93;;
33740;SDS011;20065;48.380;10.892;2023-02-15T08:11:33;20.35;;;14.05;;
33740;SDS011;20065;48.380;10.892;2023-02-15T08:14:26;26.13;;;12.52;;
33740;SDS011;20065;48.380;10.892;2023-02-15T08:17:13;20.17;;;13.15;;
33740;SDS011;20065;48.380;10.892;2023-02-15T08:19:59;17.05;;;12.23;;
33740;SDS011;20065;48.380;10.892;2023-02-15T08:22:45;22.05;;;13.20;;
33740;SDS011;20065;48.380;10.892;2023-02-15T08:25:31;23.77;;;13.57;;
33740;SDS011;20065;48.380;10.892;2023-02-15T08:28:17;22.88;;;12.88;;
33740;SDS011;20065;48.380;10.892;2023-02-15T08:31:07;22.80;;;13.27;;
33740;SDS011;20065;48.380;10.892;2023-02-15T08:33:55;22.55;;;13.55;;
33740;SDS011;20065;48.380;10.892;2023-02-15T08:36:42;23.02;;;14.40;;
33740;SDS011;20065;48.380;10.892;2023-02-15T08:39:32;25.40;;;13.43;;
33740;SDS011;20065;48.380;10.892;2023-02-15T08:42:19;24.35;;;15.20;;
33740;SDS011;20065;48.380;10.892;2023-02-15T08:45:06;26.30;;;16.08;;
33740;SDS011;20065;48.380;10.892;2023-02-15T08:47:53;23.70;;;15.13;;
33740;SDS011;20065;48.380;10.892;2023-02-15T08:50:39;28.92;;;14.43;;
33740;SDS011;20065;48.380;10.892;2023-02-15T08:53:25;22.73;;;14.43;;
33740;SDS011;20065;48.380;10.892;2023-02-15T08:56:11;23.30;;;14.70;;
33740;SDS011;20065;48.380;10.892;2023-02-15T08:58:58;24.58;;;14.10;;
33740;SDS011;20065;48.380;10.892;2023-02-15T09:01:44;22.17;;;13.73;;
33740;SDS011;20065;48.380;10.892;2023-02-15T09:04:31;26.05;;;14.50;;
33740;SDS011;20065;48.380;10.892;2023-02-15T09:07:17;24.58;;;13.98;;
33740;SDS011;20065;48.380;10.892;2023-02-15T09:10:04;23.02;;;14.48;;
33740;SDS011;20065;48.380;10.892;2023-02-15T09:12:51;21.45;;;14.02;;
33740;SDS011;20065;48.380;10.892;2023-02-15T09:15:38;25.58;;;14.85;;
33740;SDS011;20065;48.380;10.892;2023-02-15T09:18:24;23.25;;;15.15;;
33740;SDS011;20065;48.380;10.892;2023-02-15T09:21:11;20.25;;;12.95;;
33740;SDS011;20065;48.380;10.892;2023-02-15T09:24:01;21.88;;;12.70;;
33740;SDS011;20065;48.380;10.892;2023-02-15T09:26:50;22.58;;;13.50;;
33740;SDS011;20065;48.380;10.892;2023-02-15T09:29:36;20.42;;;13.55;;
33740;SDS011;20065;48.380;10.892;2023-02-15T09:32:22;17.83;;;12.10;;
33740;SDS011;20065;48.380;10.892;2023-02-15T09:35:08;21.80;;;12.77;;
33740;SDS011;20065;48.380;10.892;2023-02-15T09:37:54;19.75;;;12.48;;
33740;SDS011;20065;48.380;10.892;2023-02-15T09:40:46;19.90;;;12.35;;
33740;SDS011;20065;48.380;10.892;2023-02-15T09:43:46;20.67;;;10.98;;
33740;SDS011;20065;48.380;10.892;2023-02-15T09:46:49;18.35;;;11.25;;
33740;SDS011;20065;48.380;10.892;2023-02-15T10:14:23;20.42;;;11.90;;
33740;SDS011;20065;48.380;10.892;2023-02-15T10:27:25;18.13;;;12.57;;
33740;SDS011;20065;48.380;10.892;2023-02-15T10:30:27;19.65;;;13.02;;
33740;SDS011;20065;48.380;10.892;2023-02-15T10:52:27;18.58;;;12.50;;
33740;SDS011;20065;48.380;10.892;2023-02-15T10:55:53;17.30;;;11.68;;
33740;SDS011;20065;48.380;10.892;2023-02-15T11:02:42;16.08;;;11.52;;
33740;SDS011;20065;48.380;10.892;2023-02-15T11:08:29;19.40;;;11.23;;
33740;SDS011;20065;48.380;10.892;2023-02-15T11:11:25;18.05;;;10.77;;
33740;SDS011;20065;48.380;10.892;2023-02-15T11:14:19;21.40;;;11.55;;
33740;SDS011;20065;48.380;10.892;2023-02-15T11:17:36;14.07;;;10.65;;
33740;SDS011;20065;48.380;10.892;2023-02-15T11:20:37;20.30;;;12.05;;
33740;SDS011;20065;48.380;10.892;2023-02-15T11:23:32;15.80;;;11.20;;
33740;SDS011;20065;48.380;10.892;2023-02-15T11:32:30;20.85;;;12.68;;
33740;SDS011;20065;48.380;10.892;2023-02-15T11:35:30;16.00;;;12.38;;
33740;SDS011;20065;48.380;10.892;2023-02-15T11:38:22;17.27;;;12.82;;
33740;SDS011;20065;48.380;10.892;2023-02-15T11:41:15;21.75;;;12.90;;
33740;SDS011;20065;48.380;10.892;2023-02-15T11:44:06;15.77;;;12.10;;
33740;SDS011;20065;48.380;10.892;2023-02-15T11:46:54;18.80;;;12.27;;
33740;SDS011;20065;48.380;10.892;2023-02-15T11:49:40;19.90;;;12.13;;
33740;SDS011;20065;48.380;10.892;2023-02-15T11:52:26;17.60;;;13.70;;
33740;SDS011;20065;48.380;10.892;2023-02-15T11:55:14;16.50;;;12.23;;
33740;SDS011;20065;48.380;10.892;2023-02-15T12:04:42;25.73;;;12.65;;
33740;SDS011;20065;48.380;10.892;2023-02-15T12:07:35;18.05;;;12.25;;
33740;SDS011;20065;48.380;10.892;2023-02-15T12:10:38;17.98;;;13.45;;
33740;SDS011;20065;48.380;10.892;2023-02-15T12:13:30;18.83;;;13.70;;
33740;SDS011;20065;48.380;10.892;2023-02-15T12:16:16;20.60;;;12.55;;
33740;SDS011;20065;48.380;10.892;2023-02-15T12:19:02;21.20;;;13.77;;
33740;SDS011;20065;48.380;10.892;2023-02-15T12:21:49;19.40;;;12.52;;
33740;SDS011;20065;48.380;10.892;2023-02-15T12:24:43;25.42;;;14.20;;
33740;SDS011;20065;48.380;10.892;2023-02-15T12:27:32;18.75;;;13.25;;
33740;SDS011;20065;48.380;10.892;2023-02-15T12:30:21;17.25;;;13.10;;
33740;SDS011;20065;48.380;10.892;2023-02-15T12:33:22;21.40;;;14.13;;
33740;SDS011;20065;48.380;10.892;2023-02-15T12:36:22;18.83;;;14.07;;
33740;SDS011;20065;48.380;10.892;2023-02-15T12:42:27;21.15;;;14.95;;
33740;SDS011;20065;48.380;10.892;2023-02-15T12:45:28;21.48;;;13.48;;
33740;SDS011;20065;48.380;10.892;2023-02-15T12:48:16;19.67;;;13.90;;
33740;SDS011;20065;48.380;10.892;2023-02-15T12:51:08;20.65;;;14.25;;
33740;SDS011;20065;48.380;10.892;2023-02-15T12:53:59;25.70;;;13.27;;
33740;SDS011;20065;48.380;10.892;2023-02-15T12:56:49;18.23;;;12.38;;
33740;SDS011;20065;48.380;10.892;2023-02-15T12:59:37;20.50;;;13.50;;
33740;SDS011;20065;48.380;10.892;2023-02-15T13:02:54;21.95;;;14.13;;
33740;SDS011;20065;48.380;10.892;2023-02-15T13:05:44;21.02;;;14.18;;
33740;SDS011;20065;48.380;10.892;2023-02-15T13:08:35;19.65;;;13.85;;
33740;SDS011;20065;48.380;10.892;2023-02-15T13:11:30;22.08;;;14.43;;
33740;SDS011;20065;48.380;10.892;2023-02-15T13:14:21;25.90;;;15.23;;
33740;SDS011;20065;48.380;10.892;2023-02-15T13:17:16;25.50;;;16.35;;
33740;SDS011;20065;48.380;10.892;2023-02-15T13:20:05;23.80;;;16.92;;
33740;SDS011;20065;48.380;10.892;2023-02-15T13:23:04;25.67;;;17.13;;
33740;SDS011;20065;48.380;10.892;2023-02-15T13:26:18;23.88;;;16.00;;
33740;SDS011;20065;48.380;10.892;2023-02-15T13:29:13;25.58;;;17.08;;
33740;SDS011;20065;48.380;10.892;2023-02-15T13:32:27;27.25;;;18.40;;
33740;SDS011;20065;48.380;10.892;2023-02-15T13:35:17;29.17;;;16.67;;
33740;SDS011;20065;48.380;10.892;2023-02-15T13:38:14;32.15;;;17.48;;
33740;SDS011;20065;48.380;10.892;2023-02-15T13:41:09;28.88;;;16.88;;
33740;SDS011;20065;48.380;10.892;2023-02-15T13:50:59;26.95;;;17.00;;
33740;SDS011;20065;48.380;10.892;2023-02-15T14:12:35;26.92;;;19.73;;
33740;SDS011;20065;48.380;10.892;2023-02-15T14:25:05;25.20;;;17.42;;
33740;SDS011;20065;48.380;10.892;2023-02-15T14:28:10;26.17;;;16.55;;
33740;SDS011;20065;48.380;10.892;2023-02-15T14:31:03;25.48;;;17.88;;
33740;SDS011;20065;48.380;10.892;2023-02-15T14:33:53;31.70;;;18.75;;
33740;SDS011;20065;48.380;10.892;2023-02-15T14:36:42;31.73;;;18.67;;
33740;SDS011;20065;48.380;10.892;2023-02-15T14:39:36;26.75;;;17.25;;
33740;SDS011;20065;48.380;10.892;2023-02-15T14:46:19;26.27;;;18.33;;
33740;SDS011;20065;48.380;10.892;2023-02-15T14:52:24;27.25;;;18.17;;
33740;SDS011;20065;48.380;10.892;2023-02-15T14:55:11;27.42;;;19.38;;
33740;SDS011;20065;48.380;10.892;2023-02-15T14:58:20;30.23;;;18.48;;
33740;SDS011;20065;48.380;10.892;2023-02-15T15:01:07;29.25;;;17.27;;
33740;SDS011;20065;48.380;10.892;2023-02-15T15:03:57;25.83;;;18.92;;
33740;SDS011;20065;48.380;10.892;2023-02-15T15:07:37;25.83;;;17.42;;
33740;SDS011;20065;48.380;10.892;2023-02-15T15:13:51;29.95;;;20.05;;
33740;SDS011;20065;48.380;10.892;2023-02-15T15:19:56;28.60;;;20.10;;
33740;SDS011;20065;48.380;10.892;2023-02-15T15:22:30;28.20;;;18.67;;
33740;SDS011;20065;48.380;10.892;2023-02-15T15:50:59;29.70;;;20.77;;
33740;SDS011;20065;48.380;10.892;2023-02-15T15:53:51;34.63;;;24.60;;
33740;SDS011;20065;48.380;10.892;2023-02-15T15:56:39;32.65;;;22.75;;
33740;SDS011;20065;48.380;10.892;2023-02-15T15:59:33;31.90;;;21.58;;
33740;SDS011;20065;48.380;10.892;2023-02-15T16:02:19;36.22;;;22.45;;
33740;SDS011;20065;48.380;10.892;2023-02-15T16:05:07;38.90;;;24.00;;
33740;SDS011;20065;48.380;10.892;2023-02-15T16:07:53;37.15;;;23.02;;
33740;SDS011;20065;48.380;10.892;2023-02-15T16:10:40;32.75;;;23.15;;
33740;SDS011;20065;48.380;10.892;2023-02-15T16:13:26;41.85;;;26.25;;
33740;SDS011;20065;48.380;10.892;2023-02-15T16:16:13;38.95;;;26.33;;
33740;SDS011;20065;48.380;10.892;2023-02-15T16:19:05;41.17;;;26.42;;
33740;SDS011;20065;48.380;10.892;2023-02-15T16:21:51;39.05;;;26.30;;
33740;SDS011;20065;48.380;10.892;2023-02-15T16:24:45;41.17;;;27.80;;
33740;SDS011;20065;48.380;10.892;2023-02-15T16:27:42;42.08;;;28.13;;
33740;SDS011;20065;48.380;10.892;2023-02-15T16:30:34;44.55;;;27.48;;
33740;SDS011;20065;48.380;10.892;2023-02-15T16:33:21;44.70;;;27.10;;
33740;SDS011;20065;48.380;10.892;2023-02-15T16:36:24;39.28;;;27.17;;
33740;SDS011;20065;48.380;10.892;2023-02-15T16:39:18;40.30;;;27.75;;
33740;SDS011;20065;48.380;10.892;2023-02-15T16:42:05;39.10;;;26.55;;
33740;SDS011;20065;48.380;10.892;2023-02-15T16:44:55;44.40;;;28.25;;
33740;SDS011;20065;48.380;10.892;2023-02-15T16:47:45;41.75;;;26.95;;
33740;SDS011;20065;48.380;10.892;2023-02-15T16:50:34;49.58;;;27.10;;
33740;SDS011;20065;48.380;10.892;2023-02-15T16:53:23;42.17;;;28.35;;
33740;SDS011;20065;48.380;10.892;2023-02-15T16:56:12;40.88;;;26.15;;
33740;SDS011;20065;48.380;10.892;2023-02-15T16:58:58;41.42;;;26.15;;
33740;SDS011;20065;48.380;10.892;2023-02-15T17:01:46;39.80;;;28.65;;
33740;SDS011;20065;48.380;10.892;2023-02-15T17:04:32;37.97;;;26.42;;
33740;SDS011;20065;48.380;10.892;2023-02-15T17:07:20;38.70;;;26.80;;
33740;SDS011;20065;48.380;10.892;2023-02-15T17:10:26;37.13;;;24.58;;
33740;SDS011;20065;48.380;10.892;2023-02-15T17:13:18;40.60;;;26.25;;
33740;SDS011;20065;48.380;10.892;2023-02-15T17:18:54;42.22;;;26.40;;
33740;SDS011;20065;48.380;10.892;2023-02-15T17:24:57;41.13;;;26.60;;
33740;SDS011;20065;48.380;10.892;2023-02-15T17:27:50;40.17;;;25.77;;
33740;SDS011;20065;48.380;10.892;2023-02-15T17:30:40;46.63;;;27.13;;
33740;SDS011;20065;48.380;10.892;2023-02-15T17:36:21;41.17;;;25.80;;
33740;SDS011;20065;48.380;10.892;2023-02-15T17:39:19;37.60;;;25.73;;
33740;SDS011;20065;48.380;10.892;2023-02-15T17:42:07;42.22;;;25.45;;
33740;SDS011;20065;48.380;10.892;2023-02-15T17:44:56;41.22;;;26.25;;
33740;SDS011;20065;48.380;10.892;2023-02-15T17:47:42;42.60;;;25.45;;
33740;SDS011;20065;48.380;10.892;2023-02-15T17:50:31;45.50;;;28.80;;
33740;SDS011;20065;48.380;10.892;2023-02-15T17:53:20;40.67;;;25.98;;
33740;SDS011;20065;48.380;10.892;2023-02-15T17:56:18;35.72;;;25.63;;
33740;SDS011;20065;48.380;10.892;2023-02-15T17:59:05;46.05;;;26.08;;
33740;SDS011;20065;48.380;10.892;2023-02-15T18:01:51;43.30;;;28.10;;
33740;SDS011;20065;48.380;10.892;2023-02-15T18:04:57;37.88;;;26.38;;
33740;SDS011;20065;48.380;10.892;2023-02-15T18:08:02;41.67;;;28.23;;
33740;SDS011;20065;48.380;10.892;2023-02-15T18:11:07;44.47;;;28.17;;
33740;SDS011;20065;48.380;10.892;2023-02-15T18:14:13;45.33;;;30.10;;
33740;SDS011;20065;48.380;10.892;2023-02-15T18:17:00;42.55;;;26.65;;
33740;SDS011;20065;48.380;10.892;2023-02-15T18:19:51;40.30;;;27.80;;
33740;SDS011;20065;48.380;10.892;2023-02-15T18:22:39;40.67;;;25.73;;
33740;SDS011;20065;48.380;10.892;2023-02-15T18:25:27;44.58;;;27.23;;
33740;SDS011;20065;48.380;10.892;2023-02-15T18:28:14;41.63;;;28.23;;
33740;SDS011;20065;48.380;10.892;2023-02-15T18:31:00;46.28;;;28.58;;
33740;SDS011;20065;48.380;10.892;2023-02-15T18:33:51;42.63;;;28.00;;
33740;SDS011;20065;48.380;10.892;2023-02-15T18:36:41;44.22;;;28.30;;
33740;SDS011;20065;48.380;10.892;2023-02-15T18:39:38;40.55;;;26.20;;
33740;SDS011;20065;48.380;10.892;2023-02-15T18:42:32;44.42;;;28.50;;
33740;SDS011;20065;48.380;10.892;2023-02-15T18:45:22;47.95;;;29.33;;
33740;SDS011;20065;48.380;10.892;2023-02-15T18:48:10;46.90;;;29.40;;
33740;SDS011;20065;48.380;10.892;2023-02-15T18:50:57;47.42;;;30.35;;
33740;SDS011;20065;48.380;10.892;2023-02-15T18:53:46;65.32;;;37.35;;
33740;SDS011;20065;48.380;10.892;2023-02-15T18:56:43;64.30;;;35.05;;
33740;SDS011;20065;48.380;10.892;2023-02-15T18:59:35;63.53;;;36.50;;
33740;SDS011;20065;48.380;10.892;2023-02-15T19:02:24;49.88;;;31.45;;
33740;SDS011;20065;48.380;10.892;2023-02-15T19:05:24;50.15;;;30.75;;
33740;SDS011;20065;48.380;10.892;2023-02-15T19:08:18;51.63;;;33.42;;
33740;SDS011;20065;48.380;10.892;2023-02-15T19:11:19;46.85;;;29.15;;
33740;SDS011;20065;48.380;10.892;2023-02-15T19:14:11;55.20;;;31.45;;
33740;SDS011;20065;48.380;10.892;2023-02-15T19:17:16;48.90;;;31.65;;
33740;SDS011;20065;48.380;10.892;2023-02-15T19:20:05;51.83;;;30.90;;
33740;SDS011;20065;48.380;10.892;2023-02-15T19:22:52;58.33;;;33.30;;
33740;SDS011;20065;48.380;10.892;2023-02-15T19:25:43;52.30;;;31.35;;
33740;SDS011;20065;48.380;10.892;2023-02-15T19:28:36;53.70;;;30.92;;
33740;SDS011;20065;48.380;10.892;2023-02-15T19:31:25;56.38;;;32.75;;
33740;SDS011;20065;48.380;10.892;2023-02-15T19:34:15;58.70;;;33.67;;
33740;SDS011;20065;48.380;10.892;2023-02-15T19:37:04;53.17;;;31.42;;
33740;SDS011;20065;48.380;10.892;2023-02-15T19:39:56;56.50;;;31.80;;
33740;SDS011;20065;48.380;10.892;2023-02-15T19:42:44;64.68;;;31.40;;
33740;SDS011;20065;48.380;10.892;2023-02-15T19:45:34;50.40;;;30.15;;